Time;durP1;ratioP1;P1;durP2;ratioP2;P2;SDS_P1;SDS_P2;PMS_P1;PMS_P2;Temp;Humidity;BMP_temperature;BMP_pressure;BME280_temperature;BME280_humidity;BME280_pressure;Samples;Min_cycle;Max_cycle;Signal;HPM_P1;HPM_P2
2021/06/10 00:00:51;;;;;;;12.45;7.60;;;;;;;16.70;77.39;93685.56;6142659;23;20012;-90
2021/06/10 00:03:18;;;;;;;8.40;7.28;;;;;;;16.77;77.36;93703.69;6199908;23;20033;-88
2021/06/10 00:05:48;;;;;;;8.63;7.07;;;;;;;16.72;77.66;93699.34;6172519;23;20079;-89
2021/06/10 00:08:16;;;;;;;8.60;7.25;;;;;;;16.51;77.32;93647.91;6169877;23;20517;-88
2021/06/10 00:10:49;;;;;;;11.35;6.90;;;;;;;16.71;77.18;93681.78;6168850;23;20066;-87
2021/06/10 00:13:18;;;;;;;7.70;7.00;;;;;;;16.86;77.14;93691.06;6172204;23;20019;-87
2021/06/10 00:15:49;;;;;;;11.30;7.80;;;;;;;16.68;77.14;93671.78;6212099;23;20000;-87
2021/06/10 00:18:26;;;;;;;12.00;7.28;;;;;;;16.62;76.93;93672.31;6200553;23;20048;-86
2021/06/10 00:20:52;;;;;;;8.40;7.07;;;;;;;16.74;77.42;93667.78;6198757;23;20088;-87
2021/06/10 00:23:23;;;;;;;9.75;7.13;;;;;;;16.65;77.66;93645.75;6200169;23;20019;-86
2021/06/10 00:25:51;;;;;;;9.18;7.35;;;;;;;16.91;77.28;93676.75;6207024;23;20013;-86
2021/06/10 00:28:17;;;;;;;12.30;7.35;;;;;;;16.65;77.25;93635.09;6211144;23;20020;-88
2021/06/10 00:30:54;;;;;;;9.95;7.72;;;;;;;16.61;77.47;93639.53;6173357;23;20014;-86
2021/06/10 00:33:20;;;;;;;10.18;7.03;;;;;;;16.49;77.57;93628.78;6184571;23;20039;-88
2021/06/10 00:35:45;;;;;;;10.00;6.90;;;;;;;16.63;77.74;93652.53;6199047;23;20399;-87
2021/06/10 00:38:11;;;;;;;8.02;7.15;;;;;;;16.73;77.42;93665.44;6174372;23;20017;-87
2021/06/10 00:40:36;;;;;;;8.82;6.97;;;;;;;16.67;77.79;93667.53;6201257;23;20044;-87
2021/06/10 00:43:03;;;;;;;8.38;7.50;;;;;;;16.64;77.55;93670.88;6175438;23;20016;-87
2021/06/10 00:45:29;;;;;;;11.70;7.90;;;;;;;16.63;77.79;93669.31;6203020;23;20435;-87
2021/06/10 00:47:59;;;;;;;8.40;7.15;;;;;;;16.60;77.95;93667.31;6201687;23;20048;-88
2021/06/10 00:50:30;;;;;;;7.93;7.07;;;;;;;16.27;78.19;93618.50;6205070;23;20644;-87
2021/06/10 00:52:56;;;;;;;11.73;7.47;;;;;;;16.11;77.89;93596.19;6202201;23;20024;-88
2021/06/10 00:55:30;;;;;;;12.90;7.70;;;;;;;16.24;78.56;93619.13;6170630;23;20159;-88
2021/06/10 00:58:05;;;;;;;7.80;7.10;;;;;;;16.42;78.54;93663.97;6174009;23;20155;-88
2021/06/10 01:01:07;;;;;;;9.48;7.40;;;;;;;16.25;79.14;93666.03;6169473;23;20051;-90
2021/06/10 01:04:07;;;;;;;;;;;;;;;;;;;;;
2021/06/10 01:07:03;;;;;;;10.88;7.25;;;;;;;16.21;79.02;93641.91;6146842;23;20028;-88
2021/06/10 01:09:46;;;;;;;11.98;7.55;;;;;;;16.00;78.74;93609.94;6160337;23;20537;-87
2021/06/10 01:12:39;;;;;;;9.77;7.38;;;;;;;16.33;78.38;93657.94;6157798;23;20365;-88
2021/06/10 01:15:08;;;;;;;7.38;6.68;;;;;;;16.27;78.26;93645.91;6129474;23;20379;-88
2021/06/10 01:18:02;;;;;;;8.65;6.93;;;;;;;15.99;77.66;93603.03;6062060;23;20028;-88
2021/06/10 01:23:29;;;;;;;10.13;6.72;;;;;;;16.24;77.50;93657.25;5991680;23;20023;-88
2021/06/10 01:26:22;;;;;;;8.23;6.72;;;;;;;16.08;77.71;93636.84;6154528;23;20067;-88
2021/06/10 01:28:52;;;;;;;7.82;7.13;;;;;;;16.19;78.00;93664.66;6166679;23;20013;-85
2021/06/10 01:31:28;;;;;;;7.93;7.07;;;;;;;16.05;78.20;93643.59;6156516;23;20020;-87
2021/06/10 01:33:57;;;;;;;8.38;7.47;;;;;;;15.98;78.11;93649.44;6215927;23;20004;-86
2021/06/10 01:36:30;;;;;;;8.98;8.05;;;;;;;15.86;78.54;93620.06;6201788;23;20028;-87
2021/06/10 01:39:06;;;;;;;7.60;6.80;;;;;;;15.91;77.96;93630.53;6124515;23;20334;-86
2021/06/10 01:41:33;;;;;;;8.15;7.30;;;;;;;16.11;78.05;93662.84;6140467;23;20675;-87
2021/06/10 01:44:01;;;;;;;10.52;7.35;;;;;;;16.16;77.95;93665.31;6172617;23;20021;-86
2021/06/10 01:46:34;;;;;;;8.18;7.20;;;;;;;15.91;77.79;93641.19;6152665;23;20534;-87
2021/06/10 01:49:15;;;;;;;10.02;7.25;;;;;;;16.14;77.88;93688.84;6139302;23;20474;-87
2021/06/10 01:51:45;;;;;;;8.82;7.93;;;;;;;16.01;78.33;93661.34;6156445;23;20087;-88
2021/06/10 01:54:18;;;;;;;9.02;8.02;;;;;;;15.98;78.66;93649.44;6170826;23;20027;-88
2021/06/10 01:57:12;;;;;;;;;;;;;;;;;;;;;
2021/06/10 01:59:50;;;;;;;11.40;9.30;;;;;;;15.85;78.64;93641.72;6087840;23;20022;-87
2021/06/10 02:02:16;;;;;;;11.15;8.13;;;;;;;15.92;78.97;93648.09;6168374;23;20031;-88
2021/06/10 02:04:43;;;;;;;9.20;8.32;;;;;;;15.81;79.01;93628.25;6172901;23;20048;-87
2021/06/10 02:07:09;;;;;;;10.88;9.13;;;;;;;15.89;79.37;93651.38;6173269;23;20012;-87
2021/06/10 02:09:35;;;;;;;11.05;9.35;;;;;;;16.08;79.68;93648.25;6214332;23;19997;-88
2021/06/10 02:12:01;;;;;;;15.63;9.05;;;;;;;16.08;79.68;93653.59;6199004;23;20586;-88
2021/06/10 02:14:28;;;;;;;8.93;7.95;;;;;;;16.04;79.76;93652.69;6202557;23;20062;-87
2021/06/10 02:16:55;;;;;;;11.55;8.93;;;;;;;16.02;79.54;93655.69;6199498;23;20008;-87
2021/06/10 02:19:21;;;;;;;13.60;9.05;;;;;;;15.85;79.90;93653.16;6200857;23;20398;-88
2021/06/10 02:21:46;;;;;;;11.00;9.57;;;;;;;15.87;79.99;93666.16;6203975;23;20272;-87
2021/06/10 02:24:13;;;;;;;11.60;9.02;;;;;;;15.85;80.16;93687.00;6201096;23;20062;-87
2021/06/10 02:26:40;;;;;;;13.98;9.35;;;;;;;15.68;80.19;93663.16;6200377;23;20309;-88
2021/06/10 02:29:06;;;;;;;14.15;10.10;;;;;;;15.70;79.87;93653.72;6206465;23;20082;-88
2021/06/10 02:31:32;;;;;;;12.45;9.10;;;;;;;15.84;80.16;93693.44;6208681;23;20016;-87
2021/06/10 02:33:57;;;;;;;10.77;9.55;;;;;;;15.84;80.04;93691.56;6200878;23;20011;-86
2021/06/10 02:36:23;;;;;;;14.20;9.35;;;;;;;15.85;80.04;93698.44;6177455;23;20011;-87
2021/06/10 02:38:56;;;;;;;10.63;9.30;;;;;;;15.63;79.98;93672.09;6200760;23;20023;-88
2021/06/10 02:41:36;;;;;;;12.13;8.93;;;;;;;15.65;79.93;93661.91;6200775;23;20112;-87
2021/06/10 02:44:09;;;;;;;9.68;8.43;;;;;;;15.74;79.93;93675.16;6119614;23;20345;-85
2021/06/10 02:46:41;;;;;;;9.93;8.98;;;;;;;15.54;80.06;93660.72;6051897;23;20024;-88
2021/06/10 02:49:09;;;;;;;8.65;7.80;;;;;;;15.55;80.11;93659.59;6096101;23;20035;-87
2021/06/10 02:51:36;;;;;;;10.35;8.40;;;;;;;15.71;80.15;93676.59;6176206;23;20005;-87
2021/06/10 02:54:08;;;;;;;9.73;8.13;;;;;;;15.47;79.83;93639.91;6174514;23;20039;-84
2021/06/10 02:56:35;;;;;;;16.20;9.23;;;;;;;15.47;80.34;93644.44;6171502;23;20020;-87
2021/06/10 02:59:02;;;;;;;10.32;9.32;;;;;;;15.67;80.17;93670.34;6173647;23;20029;-84
2021/06/10 03:01:44;;;;;;;11.32;9.05;;;;;;;15.76;79.83;93667.63;6183649;23;20067;-86
2021/06/10 03:04:17;;;;;;;9.82;8.25;;;;;;;15.83;79.18;93658.00;6153991;23;20363;-87
2021/06/10 03:06:52;;;;;;;10.38;8.38;;;;;;;15.85;79.17;93650.47;6143597;23;20647;-87
2021/06/10 03:09:19;;;;;;;8.73;7.90;;;;;;;15.80;79.54;93669.31;6172489;23;20023;-87
2021/06/10 03:11:45;;;;;;;11.98;9.40;;;;;;;15.92;79.30;93672.09;6169712;23;20024;-87
2021/06/10 03:14:13;;;;;;;18.88;14.65;;;;;;;16.26;78.05;93689.69;6136546;23;20025;-86
2021/06/10 03:16:45;;;;;;;18.23;15.95;;;;;;;16.51;77.09;93687.94;6201733;23;20035;-87
2021/06/10 03:19:14;;;;;;;17.60;15.68;;;;;;;16.59;76.23;93694.31;6208425;23;20004;-87
2021/06/10 03:21:39;;;;;;;20.38;13.90;;;;;;;16.54;76.50;93679.25;6172891;23;20070;-87
2021/06/10 03:24:08;;;;;;;13.80;12.40;;;;;;;16.59;76.21;93668.41;6199047;23;20095;-87
2021/06/10 03:26:35;;;;;;;17.45;12.77;;;;;;;16.68;75.45;93647.75;6169764;23;20526;-86
2021/06/10 03:29:02;;;;;;;17.80;10.77;;;;;;;17.13;74.46;93668.31;6197776;23;20020;-86
2021/06/10 03:31:29;;;;;;;17.17;10.88;;;;;;;17.69;72.87;93688.09;6176934;23;20016;-84
2021/06/10 03:33:57;;;;;;;10.63;9.55;;;;;;;17.94;72.49;93683.47;6175710;23;20456;-87
2021/06/10 03:36:22;;;;;;;15.63;9.50;;;;;;;18.13;72.14;93681.00;6176711;23;20013;-87
2021/06/10 03:38:50;;;;;;;9.15;8.25;;;;;;;18.52;70.80;93676.75;6200547;23;20016;-87
2021/06/10 03:41:18;;;;;;;9.02;7.35;;;;;;;18.92;68.76;93671.34;6204788;23;20012;-87
2021/06/10 03:43:44;;;;;;;12.95;7.18;;;;;;;19.36;67.04;93677.44;6203587;23;20016;-86
2021/06/10 03:46:21;;;;;;;7.53;6.78;;;;;;;19.69;65.13;93653.00;6185025;23;20009;-87
2021/06/10 03:48:47;;;;;;;11.65;6.72;;;;;;;20.29;62.27;93671.16;6194495;23;20000;-87
2021/06/10 03:51:24;;;;;;;7.38;5.80;;;;;;;20.67;60.07;93642.81;6203858;23;20016;-87
2021/06/10 03:53:54;;;;;;;9.65;5.60;;;;;;;21.27;57.75;93646.56;6176214;23;20017;-88
2021/06/10 03:56:19;;;;;;;11.02;6.10;;;;;;;21.57;56.34;93641.31;6169214;23;20029;-88
2021/06/10 03:58:45;;;;;;;14.15;5.75;;;;;;;22.02;54.75;93646.63;6165972;23;20381;-87
2021/06/10 04:01:11;;;;;;;8.68;4.63;;;;;;;22.36;53.70;93642.06;6183787;23;20001;-87
2021/06/10 04:03:36;;;;;;;6.88;5.53;;;;;;;22.38;53.77;93639.78;6204823;23;20051;-86
2021/06/10 04:06:02;;;;;;;6.28;4.50;;;;;;;23.06;52.27;93654.81;6201410;23;20040;-85
2021/06/10 04:08:28;;;;;;;7.72;5.28;;;;;;;23.40;50.69;93643.97;6203910;23;20099;-87
2021/06/10 04:10:57;;;;;;;5.47;4.95;;;;;;;23.84;49.44;93633.94;6194535;23;20012;-84
2021/06/10 04:13:28;;;;;;;7.30;4.80;;;;;;;24.50;48.57;93669.81;6197408;23;20013;-87
2021/06/10 04:15:56;;;;;;;10.35;4.72;;;;;;;24.60;47.41;93650.94;6206230;23;20070;-85
2021/06/10 04:18:22;;;;;;;6.15;4.63;;;;;;;25.07;46.62;93649.19;6196150;23;20510;-86
2021/06/10 04:20:51;;;;;;;11.00;4.82;;;;;;;25.30;45.54;93651.56;6197215;23;20013;-86
2021/06/10 04:23:23;;;;;;;7.63;5.53;;;;;;;24.95;45.82;93649.56;6164513;23;20387;-87
2021/06/10 04:25:52;;;;;;;11.60;6.28;;;;;;;24.82;46.39;93626.72;6188931;23;20009;-89
2021/06/10 04:28:17;;;;;;;17.88;6.30;;;;;;;24.73;46.60;93618.94;6201124;23;20028;-85
2021/06/10 04:30:48;;;;;;;7.72;5.85;;;;;;;25.72;44.74;93640.00;6202521;23;20008;-84
2021/06/10 04:33:17;;;;;;;8.43;6.10;;;;;;;26.24;44.32;93663.56;6200198;23;20017;-86
2021/06/10 04:35:42;;;;;;;9.32;5.90;;;;;;;26.61;43.06;93618.94;6172471;23;20020;-86
2021/06/10 04:38:08;;;;;;;13.48;6.40;;;;;;;27.11;42.01;93609.44;6158454;23;20351;-84
2021/06/10 04:40:34;;;;;;;14.18;6.20;;;;;;;27.22;41.55;93641.88;6203315;23;20013;-87
2021/06/10 04:42:59;;;;;;;12.40;6.68;;;;;;;27.38;41.63;93622.41;6201313;23;20030;-87
2021/06/10 04:45:24;;;;;;;10.27;7.40;;;;;;;27.73;40.69;93624.88;6211648;23;20767;-86
2021/06/10 04:47:50;;;;;;;15.20;6.82;;;;;;;28.39;39.36;93617.25;6203369;23;20017;-86
2021/06/10 04:50:15;;;;;;;18.25;6.85;;;;;;;28.49;38.65;93640.09;6207958;23;20419;-85
2021/06/10 04:52:42;;;;;;;10.18;7.18;;;;;;;29.16;38.13;93660.28;6201901;23;20017;-83
2021/06/10 04:55:08;;;;;;;8.05;6.88;;;;;;;29.11;37.71;93663.44;6203788;23;20007;-86
2021/06/10 04:57:35;;;;;;;11.18;8.02;;;;;;;28.13;39.38;93655.22;6204497;23;20001;-86
2021/06/10 05:00:00;;;;;;;15.50;9.18;;;;;;;27.75;39.64;93652.41;6205680;23;20039;-86
2021/06/10 05:02:26;;;;;;;28.52;7.90;;;;;;;28.47;39.43;93658.75;6201151;23;20337;-84
2021/06/10 05:04:51;;;;;;;14.32;7.28;;;;;;;28.69;38.04;93665.47;6130415;23;20021;-86
2021/06/10 05:07:20;;;;;;;11.70;7.55;;;;;;;29.45;37.36;93645.13;6194703;23;20012;-86
2021/06/10 05:09:48;;;;;;;14.88;7.53;;;;;;;30.34;35.60;93658.09;6214341;23;20308;-87
2021/06/10 05:12:13;;;;;;;7.43;6.47;;;;;;;30.90;34.41;93641.84;6201984;23;20098;-85
2021/06/10 05:14:43;;;;;;;8.15;6.55;;;;;;;31.30;33.93;93648.81;6204534;23;20048;-86
2021/06/10 05:17:09;;;;;;;10.30;6.68;;;;;;;31.59;32.79;93626.34;6188717;23;20020;-86
2021/06/10 05:19:35;;;;;;;13.57;6.85;;;;;;;31.69;32.12;93653.41;6202830;23;20023;-87
2021/06/10 05:22:00;;;;;;;10.18;6.07;;;;;;;31.19;33.05;93653.72;6201287;23;20011;-86
2021/06/10 05:24:29;;;;;;;8.80;6.43;;;;;;;31.88;32.10;93654.53;6215336;23;20000;-86
2021/06/10 05:26:57;;;;;;;11.18;7.03;;;;;;;32.18;32.01;93656.94;6175694;23;20052;-86
2021/06/10 05:29:26;;;;;;;13.80;7.18;;;;;;;32.38;32.29;93664.25;6205439;23;20012;-87
2021/06/10 05:31:51;;;;;;;12.75;7.00;;;;;;;32.57;32.17;93649.66;6202978;23;20016;-88
2021/06/10 05:34:19;;;;;;;19.73;7.40;;;;;;;32.74;31.04;93664.88;6202638;23;20422;-89
2021/06/10 05:36:45;;;;;;;9.38;6.47;;;;;;;33.16;30.97;93667.63;6205845;23;20004;-90
2021/06/10 05:39:10;;;;;;;11.68;7.07;;;;;;;32.72;30.88;93664.53;6189061;23;20024;-87
2021/06/10 05:41:38;;;;;;;10.27;6.80;;;;;;;33.81;29.86;93665.31;6164294;23;20349;-87
2021/06/10 05:44:04;;;;;;;12.70;7.15;;;;;;;32.93;30.65;93653.00;6199430;23;20012;-88
2021/06/10 05:46:29;;;;;;;12.63;6.90;;;;;;;33.43;30.67;93665.25;6151329;23;20047;-89
2021/06/10 05:49:01;;;;;;;11.18;7.18;;;;;;;33.36;29.87;93658.03;6195732;23;20008;-88
2021/06/10 05:51:29;;;;;;;12.70;7.10;;;;;;;33.02;30.32;93649.63;6161068;23;20405;-88
2021/06/10 05:53:55;;;;;;;7.90;6.55;;;;;;;33.39;30.23;93650.91;6173857;23;20024;-87
2021/06/10 05:56:20;;;;;;;12.18;6.95;;;;;;;34.46;29.30;93646.31;6204489;23;20024;-88
2021/06/10 05:58:45;;;;;;;9.02;6.40;;;;;;;34.63;28.23;93638.69;6207135;23;20328;-86
2021/06/10 06:01:11;;;;;;;14.02;7.38;;;;;;;35.39;27.13;93661.06;6211760;23;20005;-87
2021/06/10 06:03:36;;;;;;;9.80;6.60;;;;;;;35.07;27.90;93656.72;6214065;23;20026;-87
2021/06/10 06:06:02;;;;;;;9.00;6.30;;;;;;;35.97;26.38;93665.91;6156478;23;20028;-85
2021/06/10 06:08:27;;;;;;;12.13;8.32;;;;;;;36.13;26.04;93667.63;6207441;23;20047;-87
2021/06/10 06:10:54;;;;;;;11.75;6.57;;;;;;;35.92;26.88;93669.25;6202508;23;20344;-88
2021/06/10 06:13:23;;;;;;;12.15;6.35;;;;;;;36.78;25.82;93670.06;6210252;23;20013;-87
2021/06/10 06:15:50;;;;;;;17.40;7.00;;;;;;;37.45;24.68;93663.53;6211625;23;20135;-89
2021/06/10 06:18:17;;;;;;;11.05;7.40;;;;;;;36.70;25.59;93677.84;6175528;23;20021;-89
2021/06/10 06:20:43;;;;;;;11.50;7.05;;;;;;;36.40;26.49;93671.22;6203266;23;20017;-88
2021/06/10 06:23:08;;;;;;;15.10;7.43;;;;;;;36.68;25.88;93674.03;6201422;23;20012;-88
2021/06/10 06:25:34;;;;;;;11.65;7.53;;;;;;;36.68;25.59;93674.03;6199125;23;20483;-87
2021/06/10 06:27:59;;;;;;;15.95;7.38;;;;;;;37.40;24.57;93673.22;6175727;23;20312;-87
2021/06/10 06:30:25;;;;;;;8.45;7.20;;;;;;;37.67;24.76;93673.16;6203138;23;20001;-87
2021/06/10 06:32:50;;;;;;;9.85;6.57;;;;;;;37.71;25.02;93684.78;6202491;23;20012;-86
2021/06/10 06:35:16;;;;;;;9.98;6.38;;;;;;;38.43;24.30;93687.66;6201985;23;20452;-87
2021/06/10 06:37:44;;;;;;;11.45;6.68;;;;;;;39.09;23.13;93682.03;6210408;23;20020;-89
2021/06/10 06:40:10;;;;;;;10.52;6.93;;;;;;;39.32;22.44;93686.75;6192035;23;20151;-89
2021/06/10 06:42:37;;;;;;;11.25;6.82;;;;;;;39.43;22.26;93695.22;6176917;23;20011;-89
2021/06/10 06:45:05;;;;;;;10.95;6.10;;;;;;;39.75;22.26;93696.25;6174170;23;20016;-90
2021/06/10 06:47:30;;;;;;;11.30;6.45;;;;;;;39.33;22.52;93707.63;6202752;23;20024;-91
2021/06/10 06:49:55;;;;;;;8.43;6.18;;;;;;;39.10;22.71;93697.38;6178089;23;20316;-91
2021/06/10 06:52:23;;;;;;;13.05;6.20;;;;;;;39.75;22.28;93702.59;6165036;23;20131;-89
2021/06/10 06:54:48;;;;;;;10.35;5.82;;;;;;;39.36;22.54;93703.88;6204384;23;20462;-91
2021/06/10 06:57:23;;;;;;;8.38;3.88;;;;;;;40.28;21.12;93704.41;6198538;23;20012;-92
2021/06/10 06:59:48;;;;;;;14.18;3.90;;;;;;;41.59;21.08;93709.81;6164290;23;20029;-89
2021/06/10 07:02:14;;;;;;;6.43;4.20;;;;;;;41.81;20.08;93704.47;6184870;23;20012;-90
2021/06/10 07:04:42;;;;;;;10.27;4.35;;;;;;;42.25;19.34;93713.16;6208953;23;20052;-89
2021/06/10 07:07:08;;;;;;;9.15;3.90;;;;;;;42.84;19.47;93706.94;6211322;23;20024;-87
2021/06/10 07:09:33;;;;;;;7.43;4.10;;;;;;;43.39;18.74;93711.97;6212939;23;20004;-91
2021/06/10 07:12:01;;;;;;;4.28;3.85;;;;;;;43.64;18.81;93721.41;6203065;23;20095;-84
2021/06/10 07:14:29;;;;;;;6.53;3.95;;;;;;;44.21;18.19;93709.75;6206470;23;20013;-88
2021/06/10 07:16:54;;;;;;;7.57;3.70;;;;;;;45.00;17.53;93702.00;6152596;23;20028;-91
2021/06/10 07:19:20;;;;;;;4.25;2.90;;;;;;;45.32;17.36;93705.91;6148398;23;20024;-86
2021/06/10 07:21:50;;;;;;;5.60;3.72;;;;;;;45.16;17.02;93723.50;6205059;23;20075;-88
2021/06/10 07:24:18;;;;;;;5.43;2.78;;;;;;;44.70;17.52;93729.72;6199343;23;20330;-92
2021/06/10 07:26:45;;;;;;;6.43;3.03;;;;;;;44.47;17.13;93711.53;6206035;23;20016;-91
2021/06/10 07:29:12;;;;;;;5.47;3.35;;;;;;;43.06;18.55;93729.25;6207553;23;20023;-88
2021/06/10 07:31:38;;;;;;;4.95;3.00;;;;;;;41.63;19.26;93749.19;6199893;23;20013;-88
2021/06/10 07:34:06;;;;;;;8.00;3.47;;;;;;;39.91;21.11;93759.44;6201432;23;20004;-90
2021/06/10 07:36:32;;;;;;;25.45;6.05;;;;;;;37.35;23.87;93764.00;6216291;23;20001;-90
2021/06/10 07:38:58;;;;;;;6.90;4.65;;;;;;;36.43;25.04;93758.38;6202232;23;20112;-87
2021/06/10 07:41:23;;;;;;;7.97;5.70;;;;;;;34.81;28.03;93765.13;6207027;23;20483;-86
2021/06/10 07:43:49;;;;;;;9.50;6.68;;;;;;;34.77;28.67;93778.97;6207317;23;20478;-90
2021/06/10 07:46:14;;;;;;;13.40;5.97;;;;;;;35.37;28.00;93778.91;6203989;23;20007;-85
2021/06/10 07:48:40;;;;;;;11.60;5.35;;;;;;;35.21;26.41;93779.06;6202612;23;20448;-88
2021/06/10 07:51:06;;;;;;;4.45;3.83;;;;;;;35.48;25.41;93771.03;6167968;23;20099;-86
2021/06/10 07:53:34;;;;;;;4.53;4.13;;;;;;;33.77;27.53;93780.53;6206408;23;20332;-82
2021/06/10 07:56:04;;;;;;;8.95;4.32;;;;;;;32.37;29.47;93769.38;6087172;23;20093;-89
2021/06/10 07:58:33;;;;;;;8.13;5.07;;;;;;;31.36;32.04;93778.19;6103139;23;20190;-85
2021/06/10 08:00:59;;;;;;;13.65;5.40;;;;;;;30.80;33.48;93790.13;6175332;23;20008;-85
2021/06/10 08:03:33;;;;;;;10.10;4.90;;;;;;;29.70;32.69;93749.00;6203370;23;20100;-82
2021/06/10 08:06:18;;;;;;;5.57;4.65;;;;;;;29.17;34.22;93743.47;6044843;23;20022;-83
2021/06/10 08:08:52;;;;;;;8.88;4.63;;;;;;;28.49;35.19;93754.28;6079896;23;20022;-84
2021/06/10 08:11:18;;;;;;;6.13;5.60;;;;;;;28.42;35.45;93754.31;6197897;23;20020;-83
2021/06/10 08:13:43;;;;;;;9.50;4.13;;;;;;;28.58;35.07;93789.91;6171297;23;20375;-86
2021/06/10 08:16:11;;;;;;;4.40;3.67;;;;;;;28.98;35.02;93795.78;6199910;23;20068;-85
2021/06/10 08:18:37;;;;;;;3.90;3.40;;;;;;;29.57;33.22;93798.97;6206603;23;20089;-86
2021/06/10 08:21:04;;;;;;;5.45;4.30;;;;;;;28.90;35.23;93803.22;6197317;23;20435;-84
2021/06/10 08:23:35;;;;;;;7.13;2.92;;;;;;;28.88;32.57;93802.88;6198995;23;20318;-85
2021/06/10 08:26:02;;;;;;;16.00;3.67;;;;;;;28.51;32.13;93794.63;6168084;23;20444;-85
2021/06/10 08:28:32;;;;;;;8.90;3.25;;;;;;;27.94;33.56;93773.31;6207996;23;20114;-83
2021/06/10 08:30:58;;;;;;;9.60;4.03;;;;;;;28.05;33.90;93784.09;6206982;23;20008;-86
2021/06/10 08:33:24;;;;;;;12.40;4.28;;;;;;;28.23;35.23;93795.63;6203289;23;20016;-87
2021/06/10 08:35:51;;;;;;;5.80;2.95;;;;;;;28.05;33.28;93798.47;6116612;23;20187;-82
2021/06/10 08:38:17;;;;;;;5.22;3.20;;;;;;;27.21;35.03;93807.78;6171963;23;20365;-84
2021/06/10 08:40:42;;;;;;;3.83;3.08;;;;;;;26.54;36.87;93803.25;6196883;23;20364;-83
2021/06/10 08:43:09;;;;;;;3.83;3.42;;;;;;;26.06;38.81;93798.19;6208778;23;20065;-82
2021/06/10 08:45:37;;;;;;;8.35;3.85;;;;;;;25.64;39.51;93811.66;6193587;23;20004;-83
2021/06/10 08:48:03;;;;;;;4.88;4.00;;;;;;;25.35;41.34;93816.97;6197767;23;20017;-83
2021/06/10 08:50:29;;;;;;;5.57;4.30;;;;;;;24.81;42.51;93798.13;6172554;23;20024;-83
2021/06/10 08:52:56;;;;;;;5.88;4.45;;;;;;;24.62;41.25;93809.22;6205784;23;20107;-82
2021/06/10 08:55:23;;;;;;;7.85;4.45;;;;;;;24.53;41.78;93809.56;6198876;23;20095;-82
2021/06/10 08:57:49;;;;;;;7.57;5.15;;;;;;;24.32;43.61;93810.16;6201186;23;20583;-86
2021/06/10 09:00:15;;;;;;;5.22;4.82;;;;;;;24.05;44.34;93806.03;6198353;23;20127;-83
2021/06/10 09:02:50;;;;;;;5.13;4.72;;;;;;;24.36;44.68;93815.59;6201972;23;20032;-83
2021/06/10 09:05:18;;;;;;;5.40;4.28;;;;;;;24.42;43.49;93803.28;6205403;23;20388;-87
2021/06/10 09:07:51;;;;;;;4.25;3.85;;;;;;;24.19;44.36;93800.03;6198624;23;20017;-84
2021/06/10 09:10:21;;;;;;;4.78;4.22;;;;;;;24.24;44.10;93802.38;6208722;23;20051;-86
2021/06/10 09:12:52;;;;;;;4.30;3.90;;;;;;;23.85;44.70;93793.94;6202224;23;20111;-82
2021/06/10 09:15:19;;;;;;;5.22;4.78;;;;;;;23.66;45.52;93787.56;6193834;23;20016;-84
2021/06/10 09:17:45;;;;;;;4.90;4.47;;;;;;;23.23;47.11;93785.53;6197693;23;20052;-82
2021/06/10 09:20:19;;;;;;;4.80;4.07;;;;;;;23.17;47.45;93781.59;6194083;23;20055;-82
2021/06/10 09:22:46;;;;;;;4.35;3.83;;;;;;;23.40;46.02;93768.00;6204797;23;20095;-82
2021/06/10 09:25:16;;;;;;;7.68;5.35;;;;;;;23.69;46.81;93778.75;6195452;23;20005;-82
2021/06/10 09:28:03;;;;;;;6.03;5.25;;;;;;;23.99;43.51;93769.75;6212368;23;20014;-81
2021/06/10 09:30:31;;;;;;;4.43;3.80;;;;;;;24.15;42.59;93773.72;6201576;23;20352;-81
2021/06/10 09:32:57;;;;;;;8.00;5.90;;;;;;;24.44;42.99;93774.75;6170181;23;20036;-83
2021/06/10 09:35:31;;;;;;;6.85;5.97;;;;;;;24.43;42.12;93773.22;6201612;23;20384;-84
2021/06/10 09:38:03;;;;;;;6.60;5.93;;;;;;;24.58;39.86;93769.41;6199442;23;20786;-85
2021/06/10 09:40:32;;;;;;;6.05;4.90;;;;;;;24.97;40.46;93768.91;6205418;23;20366;-87
2021/06/10 09:42:58;;;;;;;4.15;3.40;;;;;;;25.04;40.02;93758.09;6209489;23;20341;-83
2021/06/10 09:45:29;;;;;;;2.45;2.22;;;;;;;25.28;38.14;93762.84;6202168;23;20493;-84
2021/06/10 09:47:59;;;;;;;6.95;1.88;;;;;;;25.80;35.93;93760.66;6202652;23;20016;-84
2021/06/10 09:50:29;;;;;;;1.55;1.45;;;;;;;26.38;35.95;93756.81;6203966;23;20028;-84
2021/06/10 09:53:16;;;;;;;5.40;2.22;;;;;;;26.37;35.01;93755.28;6173815;23;20008;-82
2021/06/10 09:55:46;;;;;;;3.13;2.13;;;;;;;26.46;35.92;93759.13;6205423;23;20342;-84
2021/06/10 09:58:11;;;;;;;3.88;2.22;;;;;;;26.32;35.07;93761.84;6196946;23;20062;-82
2021/06/10 10:00:37;;;;;;;2.10;1.90;;;;;;;26.16;33.39;93762.22;6196239;23;20013;-84
2021/06/10 10:03:02;;;;;;;2.22;1.60;;;;;;;26.01;32.40;93746.34;6194370;23;20410;-82
2021/06/10 10:05:28;;;;;;;1.65;1.40;;;;;;;25.89;33.45;93742.13;6168532;23;20021;-83
2021/06/10 10:07:53;;;;;;;1.58;1.48;;;;;;;26.01;33.12;93741.72;6195304;23;20348;-83
2021/06/10 10:10:20;;;;;;;2.47;1.80;;;;;;;25.94;33.44;93733.59;6203756;23;20016;-81
2021/06/10 10:12:47;;;;;;;4.00;1.48;;;;;;;26.03;34.42;93731.28;6199148;23;20012;-83
2021/06/10 10:15:14;;;;;;;2.67;1.60;;;;;;;26.22;33.84;93744.44;6199970;23;20016;-79
2021/06/10 10:17:45;;;;;;;2.10;1.50;;;;;;;25.91;33.91;93739.78;6172566;23;20024;-83
2021/06/10 10:20:13;;;;;;;3.17;2.00;;;;;;;25.81;33.55;93740.53;6198636;23;20461;-83
2021/06/10 10:22:39;;;;;;;1.50;1.40;;;;;;;25.72;34.11;93732.81;6206569;23;20435;-81
2021/06/10 10:25:08;;;;;;;2.47;1.65;;;;;;;25.81;34.16;93724.28;6209679;23;20035;-82
2021/06/10 10:27:34;;;;;;;2.15;1.48;;;;;;;25.92;34.52;93732.44;6210917;23;20050;-82
2021/06/10 10:30:00;;;;;;;2.13;1.45;;;;;;;25.77;33.95;93723.53;6200592;23;20396;-79
2021/06/10 10:32:28;;;;;;;3.80;1.60;;;;;;;25.86;35.78;93732.03;6201169;23;20136;-81
2021/06/10 10:35:12;;;;;;;3.55;2.70;;;;;;;26.12;35.47;93712.69;6200136;23;20351;-82
2021/06/10 10:37:38;;;;;;;4.33;1.97;;;;;;;26.13;33.62;93708.84;6205765;23;20021;-81
2021/06/10 10:40:08;;;;;;;1.83;1.70;;;;;;;25.96;34.36;93731.25;6171830;23;20473;-80
2021/06/10 10:42:36;;;;;;;1.70;1.60;;;;;;;25.69;33.45;93724.69;6200230;23;20008;-80
2021/06/10 10:45:22;;;;;;;1.75;1.65;;;;;;;25.99;33.50;93724.31;6199335;23;20502;-80
2021/06/10 10:48:06;;;;;;;3.42;1.75;;;;;;;26.03;34.92;93725.88;6200098;23;20016;-79
2021/06/10 10:50:35;;;;;;;3.33;2.10;;;;;;;25.80;35.30;93723.53;6200859;23;20526;-80
2021/06/10 10:53:02;;;;;;;3.05;1.42;;;;;;;25.74;33.73;93724.31;6204303;23;20023;-81
2021/06/10 10:55:30;;;;;;;2.88;1.10;;;;;;;26.03;32.95;93723.16;6197985;23;20381;-81
2021/06/10 10:58:03;;;;;;;5.78;1.67;;;;;;;26.15;34.63;93711.91;6213165;23;20062;-82
2021/06/10 11:00:52;;;;;;;2.05;1.58;;;;;;;26.18;34.15;93710.38;6174337;23;20411;-83
2021/06/10 11:03:27;;;;;;;1.58;1.33;;;;;;;26.37;34.68;93717.34;6202428;23;20345;-83
2021/06/10 11:05:53;;;;;;;3.75;1.73;;;;;;;26.33;31.96;93703.81;6174055;23;20116;-81
2021/06/10 11:08:22;;;;;;;2.53;1.90;;;;;;;26.20;34.22;93692.56;6174541;23;20020;-81
2021/06/10 11:10:54;;;;;;;1.63;1.33;;;;;;;26.24;33.76;93709.59;6196601;23;20190;-82
2021/06/10 11:13:28;;;;;;;1.92;1.40;;;;;;;26.29;33.71;93706.50;6198529;23;20028;-81
2021/06/10 11:15:57;;;;;;;1.90;1.70;;;;;;;26.29;34.57;93703.06;6208241;23;20087;-81
2021/06/10 11:18:39;;;;;;;2.92;1.95;;;;;;;25.92;34.12;93697.22;6169550;23;20509;-81
2021/06/10 11:21:08;;;;;;;2.20;2.00;;;;;;;25.76;33.58;93684.84;6195514;23;20043;-82
2021/06/10 11:23:33;;;;;;;3.17;2.05;;;;;;;25.93;34.07;93704.97;6196512;23;20024;-81
2021/06/10 11:26:02;;;;;;;2.70;2.17;;;;;;;26.10;34.27;93698.75;6193620;23;20778;-80
2021/06/10 11:28:37;;;;;;;3.28;2.10;;;;;;;26.01;35.84;93694.91;6196935;23;20019;-82
2021/06/10 11:31:20;;;;;;;3.80;2.20;;;;;;;26.13;34.33;93687.16;6207544;23;20004;-82
2021/06/10 11:33:47;;;;;;;4.25;2.50;;;;;;;26.02;33.51;93680.97;6211022;23;20031;-82
2021/06/10 11:36:12;;;;;;;4.50;2.20;;;;;;;25.85;33.67;93687.19;6197743;23;20172;-81
2021/06/10 11:38:52;;;;;;;2.28;2.13;;;;;;;25.98;33.28;93674.81;6197599;23;20481;-81
2021/06/10 11:41:22;;;;;;;4.75;2.53;;;;;;;25.94;33.92;93682.16;6170222;23;20250;-80
2021/06/10 11:43:57;;;;;;;2.92;2.72;;;;;;;26.03;34.43;93670.94;6203874;23;20023;-82